createdAt,value
2022-12-25T00:06:25.281Z,7.20
2022-12-25T00:28:11.084Z,6.40
2022-12-25T00:49:56.913Z,6.70
2022-12-25T01:11:42.687Z,7.00
2022-12-25T01:33:28.323Z,5.30
2022-12-25T01:55:14.669Z,5.90
2022-12-25T02:17:08.805Z,5.20
2022-12-25T02:39:18.330Z,5.90
2022-12-25T03:01:26.272Z,4.50
2022-12-25T03:23:31.306Z,4.50
2022-12-25T03:45:45.265Z,5.00
2022-12-25T04:07:48.715Z,4.50
2022-12-25T04:29:52.359Z,4.50
2022-12-25T04:51:39.379Z,4.60
2022-12-25T05:13:25.303Z,5.30
2022-12-25T05:35:12.078Z,5.40
2022-12-25T05:56:58.192Z,7.00
2022-12-25T06:18:46.091Z,10.00
2022-12-25T06:40:31.803Z,9.20
2022-12-25T07:02:20.820Z,8.70
2022-12-25T07:24:07.450Z,8.00
2022-12-25T07:45:57.859Z,9.30
2022-12-25T08:07:43.791Z,9.20
2022-12-25T08:29:29.669Z,10.40
2022-12-25T08:51:17.540Z,10.80
2022-12-25T09:13:03.215Z,10.70
2022-12-25T09:34:48.909Z,10.70
2022-12-25T09:56:36.248Z,8.30
2022-12-25T10:18:49.191Z,7.50
2022-12-25T10:40:44.248Z,6.50
2022-12-25T11:02:35.618Z,7.30
2022-12-25T11:43:49.651Z,7.20
2022-12-25T12:05:41.240Z,6.50
2022-12-25T12:27:35.537Z,5.70
2022-12-25T12:49:25.707Z,6.50
2022-12-25T13:11:19.576Z,6.30
2022-12-25T13:33:06.186Z,7.40
2022-12-25T13:55:01.553Z,7.50
2022-12-25T14:16:49.802Z,7.80
2022-12-25T14:38:36.899Z,9.60
2022-12-25T15:00:27.603Z,9.60
2022-12-25T15:22:15.179Z,12.30
2022-12-25T15:44:00.952Z,13.70
2022-12-25T16:05:46.764Z,14.20
2022-12-25T16:27:32.498Z,15.90
2022-12-25T16:49:18.408Z,15.20
2022-12-25T17:11:06.744Z,15.10
2022-12-25T17:32:52.679Z,17.30
2022-12-25T17:54:39.272Z,17.40
2022-12-25T18:16:27.177Z,19.40
2022-12-25T18:38:13.281Z,18.30
2022-12-25T18:59:58.979Z,18.30
2022-12-25T19:21:45.597Z,18.80
2022-12-25T19:43:33.358Z,21.00
2022-12-25T20:05:19.303Z,17.70
2022-12-25T20:43:45.096Z,17.80
2022-12-25T21:05:31.494Z,14.20
2022-12-25T21:27:17.342Z,12.30
2022-12-25T21:49:03.100Z,10.40
2022-12-25T22:10:48.823Z,11.30
2022-12-25T22:44:16.480Z,11.60
2022-12-25T23:05:58.353Z,11.90
2022-12-25T23:27:44.751Z,14.10
2022-12-25T23:49:31.028Z,13.60
